sensor_id;sensor_type;location;lat;lon;timestamp;temperature;humidity
76474;DHT22;65307;50.902;4.278;2022-11-20T00:01:13;18.80;54.60
76474;DHT22;65307;50.902;4.278;2022-11-20T00:03:40;18.80;54.60
76474;DHT22;65307;50.902;4.278;2022-11-20T00:06:07;18.80;54.60
76474;DHT22;65307;50.902;4.278;2022-11-20T00:08:33;18.80;54.60
76474;DHT22;65307;50.902;4.278;2022-11-20T00:11:13;18.80;54.50
76474;DHT22;65307;50.902;4.278;2022-11-20T00:13:39;18.80;54.50
76474;DHT22;65307;50.902;4.278;2022-11-20T00:16:06;18.80;54.60
76474;DHT22;65307;50.902;4.278;2022-11-20T00:18:33;18.80;54.50
76474;DHT22;65307;50.902;4.278;2022-11-20T00:21:07;18.80;54.50
76474;DHT22;65307;50.902;4.278;2022-11-20T00:23:34;18.80;54.50
76474;DHT22;65307;50.902;4.278;2022-11-20T00:26:04;18.80;54.60
76474;DHT22;65307;50.902;4.278;2022-11-20T00:28:30;18.80;54.50
76474;DHT22;65307;50.902;4.278;2022-11-20T00:31:07;18.80;54.50
76474;DHT22;65307;50.902;4.278;2022-11-20T00:33:34;18.80;54.50
76474;DHT22;65307;50.902;4.278;2022-11-20T00:36:07;18.80;54.50
76474;DHT22;65307;50.902;4.278;2022-11-20T00:38:33;18.80;54.50
76474;DHT22;65307;50.902;4.278;2022-11-20T00:41:01;18.80;54.50
76474;DHT22;65307;50.902;4.278;2022-11-20T00:43:27;18.80;54.50
76474;DHT22;65307;50.902;4.278;2022-11-20T00:46:17;18.80;54.50
76474;DHT22;65307;50.902;4.278;2022-11-20T00:48:43;18.80;54.50
76474;DHT22;65307;50.902;4.278;2022-11-20T00:51:10;18.70;54.50
76474;DHT22;65307;50.902;4.278;2022-11-20T00:53:36;18.70;54.50
76474;DHT22;65307;50.902;4.278;2022-11-20T00:56:05;18.80;54.50
76474;DHT22;65307;50.902;4.278;2022-11-20T00:58:33;18.70;54.50
76474;DHT22;65307;50.902;4.278;2022-11-20T01:01:05;18.70;54.50
76474;DHT22;65307;50.902;4.278;2022-11-20T01:03:41;18.80;54.50
76474;DHT22;65307;50.902;4.278;2022-11-20T01:06:16;18.70;54.40
76474;DHT22;65307;50.902;4.278;2022-11-20T01:08:43;18.70;54.50
76474;DHT22;65307;50.902;4.278;2022-11-20T01:11:17;18.70;54.50
76474;DHT22;65307;50.902;4.278;2022-11-20T01:13:45;18.70;54.40
76474;DHT22;65307;50.902;4.278;2022-11-20T01:16:14;18.70;54.40
76474;DHT22;65307;50.902;4.278;2022-11-20T01:18:42;18.70;54.40
76474;DHT22;65307;50.902;4.278;2022-11-20T01:21:10;18.70;54.40
76474;DHT22;65307;50.902;4.278;2022-11-20T01:23:39;18.80;54.50
76474;DHT22;65307;50.902;4.278;2022-11-20T01:26:07;18.70;54.40
76474;DHT22;65307;50.902;4.278;2022-11-20T01:28:33;18.70;54.40
76474;DHT22;65307;50.902;4.278;2022-11-20T01:31:00;18.70;54.40
76474;DHT22;65307;50.902;4.278;2022-11-20T01:33:26;18.70;54.40
76474;DHT22;65307;50.902;4.278;2022-11-20T01:35:52;18.70;54.40
76474;DHT22;65307;50.902;4.278;2022-11-20T01:38:17;18.70;54.40
76474;DHT22;65307;50.902;4.278;2022-11-20T01:40:43;18.70;54.40
76474;DHT22;65307;50.902;4.278;2022-11-20T01:43:18;18.70;55.00
76474;DHT22;65307;50.902;4.278;2022-11-20T01:46:15;18.70;54.30
76474;DHT22;65307;50.902;4.278;2022-11-20T01:49:04;18.70;54.30
76474;DHT22;65307;50.902;4.278;2022-11-20T01:52:36;18.70;54.40
76474;DHT22;65307;50.902;4.278;2022-11-20T01:55:00;18.70;54.50
76474;DHT22;65307;50.902;4.278;2022-11-20T01:57:26;18.70;54.40
76474;DHT22;65307;50.902;4.278;2022-11-20T01:59:59;18.60;54.40
76474;DHT22;65307;50.902;4.278;2022-11-20T02:02:25;18.70;54.40
76474;DHT22;65307;50.902;4.278;2022-11-20T02:04:54;18.60;54.40
76474;DHT22;65307;50.902;4.278;2022-11-20T02:07:21;18.70;54.40
76474;DHT22;65307;50.902;4.278;2022-11-20T02:09:47;18.70;54.40
76474;DHT22;65307;50.902;4.278;2022-11-20T02:12:13;18.70;54.30
76474;DHT22;65307;50.902;4.278;2022-11-20T02:14:59;18.70;54.40
76474;DHT22;65307;50.902;4.278;2022-11-20T02:17:25;18.60;54.30
76474;DHT22;65307;50.902;4.278;2022-11-20T02:19:51;18.60;54.30
76474;DHT22;65307;50.902;4.278;2022-11-20T02:22:24;18.60;54.30
76474;DHT22;65307;50.902;4.278;2022-11-20T02:24:52;18.70;54.30
76474;DHT22;65307;50.902;4.278;2022-11-20T02:27:18;18.60;54.30
76474;DHT22;65307;50.902;4.278;2022-11-20T02:29:45;18.60;54.30
76474;DHT22;65307;50.902;4.278;2022-11-20T02:32:31;18.60;54.30
76474;DHT22;65307;50.902;4.278;2022-11-20T02:34:58;18.70;54.30
76474;DHT22;65307;50.902;4.278;2022-11-20T02:37:30;18.70;54.30
76474;DHT22;65307;50.902;4.278;2022-11-20T02:39:56;18.60;54.30
76474;DHT22;65307;50.902;4.278;2022-11-20T02:42:22;18.60;54.30
76474;DHT22;65307;50.902;4.278;2022-11-20T02:44:47;18.60;54.40
76474;DHT22;65307;50.902;4.278;2022-11-20T02:47:13;18.60;55.00
76474;DHT22;65307;50.902;4.278;2022-11-20T02:49:38;18.60;54.40
76474;DHT22;65307;50.902;4.278;2022-11-20T02:52:04;18.60;54.40
76474;DHT22;65307;50.902;4.278;2022-11-20T02:54:30;18.60;54.30
76474;DHT22;65307;50.902;4.278;2022-11-20T02:56:56;18.60;54.40
76474;DHT22;65307;50.902;4.278;2022-11-20T02:59:21;18.60;54.30
76474;DHT22;65307;50.902;4.278;2022-11-20T03:01:47;18.60;54.90
76474;DHT22;65307;50.902;4.278;2022-11-20T03:04:12;18.60;54.30
76474;DHT22;65307;50.902;4.278;2022-11-20T03:06:38;18.60;54.20
76474;DHT22;65307;50.902;4.278;2022-11-20T03:09:03;18.60;54.30
76474;DHT22;65307;50.902;4.278;2022-11-20T03:11:29;18.60;54.30
76474;DHT22;65307;50.902;4.278;2022-11-20T03:13:55;18.60;54.30
76474;DHT22;65307;50.902;4.278;2022-11-20T03:16:22;18.60;54.20
76474;DHT22;65307;50.902;4.278;2022-11-20T03:18:48;18.60;54.20
76474;DHT22;65307;50.902;4.278;2022-11-20T03:21:14;18.60;54.30
76474;DHT22;65307;50.902;4.278;2022-11-20T03:23:40;18.60;54.30
76474;DHT22;65307;50.902;4.278;2022-11-20T03:26:19;18.60;54.20
76474;DHT22;65307;50.902;4.278;2022-11-20T03:28:50;18.60;54.20
76474;DHT22;65307;50.902;4.278;2022-11-20T03:31:18;18.60;54.20
76474;DHT22;65307;50.902;4.278;2022-11-20T03:33:44;18.60;54.20
76474;DHT22;65307;50.902;4.278;2022-11-20T03:36:12;18.60;54.30
76474;DHT22;65307;50.902;4.278;2022-11-20T03:38:38;18.60;54.20
76474;DHT22;65307;50.902;4.278;2022-11-20T03:41:19;18.60;54.20
76474;DHT22;65307;50.902;4.278;2022-11-20T03:43:52;18.60;54.20
76474;DHT22;65307;50.902;4.278;2022-11-20T03:46:18;18.60;54.20
76474;DHT22;65307;50.902;4.278;2022-11-20T03:48:44;18.60;54.20
76474;DHT22;65307;50.902;4.278;2022-11-20T03:51:23;18.60;54.20
76474;DHT22;65307;50.902;4.278;2022-11-20T03:53:51;18.60;54.20
76474;DHT22;65307;50.902;4.278;2022-11-20T03:56:19;18.50;54.10
76474;DHT22;65307;50.902;4.278;2022-11-20T03:58:45;18.50;54.10
76474;DHT22;65307;50.902;4.278;2022-11-20T04:01:12;18.60;54.20
76474;DHT22;65307;50.902;4.278;2022-11-20T04:03:39;18.60;54.20
76474;DHT22;65307;50.902;4.278;2022-11-20T04:06:10;18.60;54.20
76474;DHT22;65307;50.902;4.278;2022-11-20T04:08:36;18.60;54.20
76474;DHT22;65307;50.902;4.278;2022-11-20T04:11:19;18.60;54.20
76474;DHT22;65307;50.902;4.278;2022-11-20T04:13:50;18.50;54.10
76474;DHT22;65307;50.902;4.278;2022-11-20T04:16:17;18.60;54.20
76474;DHT22;65307;50.902;4.278;2022-11-20T04:18:44;18.60;54.20
76474;DHT22;65307;50.902;4.278;2022-11-20T04:21:10;18.50;54.10
76474;DHT22;65307;50.902;4.278;2022-11-20T04:23:35;18.60;54.20
76474;DHT22;65307;50.902;4.278;2022-11-20T04:26:09;18.60;54.20
76474;DHT22;65307;50.902;4.278;2022-11-20T04:28:36;18.50;54.10
76474;DHT22;65307;50.902;4.278;2022-11-20T04:31:08;18.50;54.10
76474;DHT22;65307;50.902;4.278;2022-11-20T04:33:34;18.50;54.10
76474;DHT22;65307;50.902;4.278;2022-11-20T04:38:30;18.60;54.10
76474;DHT22;65307;50.902;4.278;2022-11-20T04:41:02;18.60;54.10
76474;DHT22;65307;50.902;4.278;2022-11-20T04:43:28;18.50;54.10
76474;DHT22;65307;50.902;4.278;2022-11-20T04:45:55;18.50;54.10
76474;DHT22;65307;50.902;4.278;2022-11-20T04:48:22;18.50;54.10
76474;DHT22;65307;50.902;4.278;2022-11-20T04:50:48;18.50;54.10
76474;DHT22;65307;50.902;4.278;2022-11-20T04:53:14;18.60;54.10
76474;DHT22;65307;50.902;4.278;2022-11-20T04:55:39;18.60;54.10
76474;DHT22;65307;50.902;4.278;2022-11-20T04:58:05;18.50;54.10
76474;DHT22;65307;50.902;4.278;2022-11-20T05:00:31;18.50;54.10
76474;DHT22;65307;50.902;4.278;2022-11-20T05:02:56;18.50;54.10
76474;DHT22;65307;50.902;4.278;2022-11-20T05:05:22;18.50;54.10
76474;DHT22;65307;50.902;4.278;2022-11-20T05:07:48;18.50;54.10
76474;DHT22;65307;50.902;4.278;2022-11-20T05:10:13;18.50;54.10
76474;DHT22;65307;50.902;4.278;2022-11-20T05:12:39;18.50;54.00
76474;DHT22;65307;50.902;4.278;2022-11-20T05:15:05;18.50;54.10
76474;DHT22;65307;50.902;4.278;2022-11-20T05:17:30;18.50;54.00
76474;DHT22;65307;50.902;4.278;2022-11-20T05:19:56;18.50;54.10
76474;DHT22;65307;50.902;4.278;2022-11-20T05:22:21;18.50;54.00
76474;DHT22;65307;50.902;4.278;2022-11-20T05:24:47;18.50;54.10
76474;DHT22;65307;50.902;4.278;2022-11-20T05:27:13;18.50;54.00
76474;DHT22;65307;50.902;4.278;2022-11-20T05:29:38;18.50;54.10
76474;DHT22;65307;50.902;4.278;2022-11-20T05:32:04;18.50;54.10
76474;DHT22;65307;50.902;4.278;2022-11-20T05:34:31;18.50;54.00
76474;DHT22;65307;50.902;4.278;2022-11-20T05:36:57;18.50;54.10
76474;DHT22;65307;50.902;4.278;2022-11-20T05:39:22;18.50;54.00
76474;DHT22;65307;50.902;4.278;2022-11-20T05:41:48;18.50;54.10
76474;DHT22;65307;50.902;4.278;2022-11-20T05:44:33;18.50;54.00
76474;DHT22;65307;50.902;4.278;2022-11-20T05:46:59;18.50;54.00
76474;DHT22;65307;50.902;4.278;2022-11-20T05:49:24;18.50;54.00
76474;DHT22;65307;50.902;4.278;2022-11-20T05:51:50;18.50;54.00
76474;DHT22;65307;50.902;4.278;2022-11-20T05:54:15;18.50;54.00
76474;DHT22;65307;50.902;4.278;2022-11-20T05:56:41;18.50;54.00
76474;DHT22;65307;50.902;4.278;2022-11-20T05:59:07;18.50;54.00
76474;DHT22;65307;50.902;4.278;2022-11-20T06:01:32;18.50;54.00
76474;DHT22;65307;50.902;4.278;2022-11-20T06:03:58;18.50;54.00
76474;DHT22;65307;50.902;4.278;2022-11-20T06:06:23;18.50;54.00
76474;DHT22;65307;50.902;4.278;2022-11-20T06:08:51;18.50;54.00
76474;DHT22;65307;50.902;4.278;2022-11-20T06:11:17;18.50;54.00
76474;DHT22;65307;50.902;4.278;2022-11-20T06:13:43;18.50;54.00
76474;DHT22;65307;50.902;4.278;2022-11-20T06:16:10;18.50;54.00
76474;DHT22;65307;50.902;4.278;2022-11-20T06:18:36;18.50;54.00
76474;DHT22;65307;50.902;4.278;2022-11-20T06:21:16;18.50;54.00
76474;DHT22;65307;50.902;4.278;2022-11-20T06:23:42;18.50;54.00
76474;DHT22;65307;50.902;4.278;2022-11-20T06:26:11;18.40;53.90
76474;DHT22;65307;50.902;4.278;2022-11-20T06:28:38;18.50;54.00
76474;DHT22;65307;50.902;4.278;2022-11-20T06:31:04;18.40;53.90
76474;DHT22;65307;50.902;4.278;2022-11-20T06:33:31;18.40;54.00
76474;DHT22;65307;50.902;4.278;2022-11-20T06:36:00;18.50;54.60
76474;DHT22;65307;50.902;4.278;2022-11-20T06:38:27;18.50;54.00
76474;DHT22;65307;50.902;4.278;2022-11-20T06:40:53;18.50;54.00
76474;DHT22;65307;50.902;4.278;2022-11-20T06:43:19;18.50;54.00
76474;DHT22;65307;50.902;4.278;2022-11-20T06:45:44;18.50;54.00
76474;DHT22;65307;50.902;4.278;2022-11-20T06:48:10;18.40;54.00
76474;DHT22;65307;50.902;4.278;2022-11-20T06:50:38;18.40;54.00
76474;DHT22;65307;50.902;4.278;2022-11-20T06:53:04;18.40;53.90
76474;DHT22;65307;50.902;4.278;2022-11-20T06:55:31;18.50;54.00
76474;DHT22;65307;50.902;4.278;2022-11-20T06:57:57;18.40;54.00
76474;DHT22;65307;50.902;4.278;2022-11-20T07:00:23;18.40;54.00
76474;DHT22;65307;50.902;4.278;2022-11-20T07:02:48;18.40;54.00
76474;DHT22;65307;50.902;4.278;2022-11-20T07:05:15;18.40;54.00
76474;DHT22;65307;50.902;4.278;2022-11-20T07:07:40;18.40;54.00
76474;DHT22;65307;50.902;4.278;2022-11-20T07:10:06;18.40;53.90
76474;DHT22;65307;50.902;4.278;2022-11-20T07:12:32;18.40;54.00
76474;DHT22;65307;50.902;4.278;2022-11-20T07:14:57;18.40;53.90
76474;DHT22;65307;50.902;4.278;2022-11-20T07:17:23;18.40;53.90
76474;DHT22;65307;50.902;4.278;2022-11-20T07:19:49;18.40;54.00
76474;DHT22;65307;50.902;4.278;2022-11-20T07:22:14;18.40;53.90
76474;DHT22;65307;50.902;4.278;2022-11-20T07:24:40;18.40;53.90
76474;DHT22;65307;50.902;4.278;2022-11-20T07:27:05;18.50;54.00
76474;DHT22;65307;50.902;4.278;2022-11-20T07:29:31;18.40;53.90
76474;DHT22;65307;50.902;4.278;2022-11-20T07:31:56;18.40;53.90
76474;DHT22;65307;50.902;4.278;2022-11-20T07:34:22;18.40;53.90
76474;DHT22;65307;50.902;4.278;2022-11-20T07:36:48;18.50;53.90
76474;DHT22;65307;50.902;4.278;2022-11-20T07:39:14;18.50;53.90
76474;DHT22;65307;50.902;4.278;2022-11-20T07:41:39;18.40;53.80
76474;DHT22;65307;50.902;4.278;2022-11-20T07:44:05;18.50;53.90
76474;DHT22;65307;50.902;4.278;2022-11-20T07:46:30;18.40;53.80
76474;DHT22;65307;50.902;4.278;2022-11-20T07:48:56;18.40;53.80
76474;DHT22;65307;50.902;4.278;2022-11-20T07:51:21;18.50;53.80
76474;DHT22;65307;50.902;4.278;2022-11-20T07:53:47;18.40;53.80
76474;DHT22;65307;50.902;4.278;2022-11-20T07:56:15;18.50;53.80
76474;DHT22;65307;50.902;4.278;2022-11-20T07:58:41;18.40;53.70
76474;DHT22;65307;50.902;4.278;2022-11-20T08:01:07;18.50;53.80
76474;DHT22;65307;50.902;4.278;2022-11-20T08:03:33;18.40;53.70
76474;DHT22;65307;50.902;4.278;2022-11-20T08:05:59;18.40;53.70
76474;DHT22;65307;50.902;4.278;2022-11-20T08:08:26;18.40;53.70
76474;DHT22;65307;50.902;4.278;2022-11-20T08:10:52;18.50;53.70
76474;DHT22;65307;50.902;4.278;2022-11-20T08:13:17;18.50;53.70
76474;DHT22;65307;50.902;4.278;2022-11-20T08:16:02;18.50;53.70
76474;DHT22;65307;50.902;4.278;2022-11-20T08:18:27;18.50;53.70
76474;DHT22;65307;50.902;4.278;2022-11-20T08:20:53;18.50;53.70
76474;DHT22;65307;50.902;4.278;2022-11-20T08:23:18;18.50;53.70
76474;DHT22;65307;50.902;4.278;2022-11-20T08:25:49;18.50;53.70
76474;DHT22;65307;50.902;4.278;2022-11-20T08:28:15;18.50;53.70
76474;DHT22;65307;50.902;4.278;2022-11-20T08:30:40;18.50;53.70
76474;DHT22;65307;50.902;4.278;2022-11-20T08:33:07;18.50;53.70
76474;DHT22;65307;50.902;4.278;2022-11-20T08:35:35;18.50;53.60
76474;DHT22;65307;50.902;4.278;2022-11-20T08:38:02;18.50;53.60
76474;DHT22;65307;50.902;4.278;2022-11-20T08:40:28;18.50;53.60
76474;DHT22;65307;50.902;4.278;2022-11-20T08:42:53;18.50;53.60
76474;DHT22;65307;50.902;4.278;2022-11-20T08:45:20;18.50;53.50
76474;DHT22;65307;50.902;4.278;2022-11-20T08:47:45;18.50;53.60
76474;DHT22;65307;50.902;4.278;2022-11-20T08:50:13;18.50;53.50
76474;DHT22;65307;50.902;4.278;2022-11-20T08:52:39;18.50;53.50
76474;DHT22;65307;50.902;4.278;2022-11-20T08:55:05;18.60;53.60
76474;DHT22;65307;50.902;4.278;2022-11-20T08:57:33;18.60;53.50
76474;DHT22;65307;50.902;4.278;2022-11-20T08:59:58;18.50;53.50
76474;DHT22;65307;50.902;4.278;2022-11-20T09:02:24;18.60;53.60
76474;DHT22;65307;50.902;4.278;2022-11-20T09:04:50;18.50;53.50
76474;DHT22;65307;50.902;4.278;2022-11-20T09:07:15;18.60;53.50
76474;DHT22;65307;50.902;4.278;2022-11-20T09:09:41;18.60;53.50
76474;DHT22;65307;50.902;4.278;2022-11-20T09:12:07;18.50;53.40
76474;DHT22;65307;50.902;4.278;2022-11-20T09:14:32;18.50;53.70
76474;DHT22;65307;50.902;4.278;2022-11-20T09:16:59;18.50;53.40
76474;DHT22;65307;50.902;4.278;2022-11-20T09:19:24;18.50;53.40
76474;DHT22;65307;50.902;4.278;2022-11-20T09:21:50;18.50;53.50
76474;DHT22;65307;50.902;4.278;2022-11-20T09:24:16;18.50;53.40
76474;DHT22;65307;50.902;4.278;2022-11-20T09:26:43;18.60;53.50
76474;DHT22;65307;50.902;4.278;2022-11-20T09:29:08;18.50;53.40
76474;DHT22;65307;50.902;4.278;2022-11-20T09:31:34;18.60;53.40
76474;DHT22;65307;50.902;4.278;2022-11-20T09:33:59;18.60;53.40
76474;DHT22;65307;50.902;4.278;2022-11-20T09:36:25;18.60;53.40
76474;DHT22;65307;50.902;4.278;2022-11-20T09:38:51;18.60;53.30
76474;DHT22;65307;50.902;4.278;2022-11-20T09:41:51;18.60;53.30
76474;DHT22;65307;50.902;4.278;2022-11-20T09:47:07;18.60;53.20
76474;DHT22;65307;50.902;4.278;2022-11-20T09:52:19;18.70;53.20
76474;DHT22;65307;50.902;4.278;2022-11-20T09:54:46;18.70;53.20
76474;DHT22;65307;50.902;4.278;2022-11-20T09:57:15;18.70;53.20
76474;DHT22;65307;50.902;4.278;2022-11-20T09:59:46;18.70;53.20
76474;DHT22;65307;50.902;4.278;2022-11-20T10:05:02;18.70;53.10
76474;DHT22;65307;50.902;4.278;2022-11-20T10:07:36;18.70;53.10
76474;DHT22;65307;50.902;4.278;2022-11-20T10:10:04;18.70;53.10
76474;DHT22;65307;50.902;4.278;2022-11-20T10:29:16;18.80;52.90
76474;DHT22;65307;50.902;4.278;2022-11-20T10:31:59;18.90;52.80
76474;DHT22;65307;50.902;4.278;2022-11-20T10:34:34;18.90;52.60
76474;DHT22;65307;50.902;4.278;2022-11-20T10:37:15;19.00;52.40
76474;DHT22;65307;50.902;4.278;2022-11-20T10:42:48;19.20;51.80
76474;DHT22;65307;50.902;4.278;2022-11-20T10:47:52;19.30;51.50
76474;DHT22;65307;50.902;4.278;2022-11-20T10:50:21;19.40;51.50
76474;DHT22;65307;50.902;4.278;2022-11-20T10:53:02;19.30;51.50
76474;DHT22;65307;50.902;4.278;2022-11-20T10:55:39;19.40;51.50
76474;DHT22;65307;50.902;4.278;2022-11-20T11:00:49;19.30;51.60
76474;DHT22;65307;50.902;4.278;2022-11-20T11:03:25;19.30;51.60
76474;DHT22;65307;50.902;4.278;2022-11-20T11:06:23;19.30;51.70
76474;DHT22;65307;50.902;4.278;2022-11-20T11:08:53;19.30;51.70
76474;DHT22;65307;50.902;4.278;2022-11-20T11:11:26;19.20;51.70
76474;DHT22;65307;50.902;4.278;2022-11-20T11:13:53;19.30;51.80
76474;DHT22;65307;50.902;4.278;2022-11-20T11:16:23;19.20;51.70
76474;DHT22;65307;50.902;4.278;2022-11-20T11:18:50;19.20;51.80
76474;DHT22;65307;50.902;4.278;2022-11-20T11:21:23;19.20;51.80
76474;DHT22;65307;50.902;4.278;2022-11-20T11:24:02;19.20;51.80
76474;DHT22;65307;50.902;4.278;2022-11-20T11:26:29;19.10;51.80
76474;DHT22;65307;50.902;4.278;2022-11-20T11:28:59;19.10;51.90
76474;DHT22;65307;50.902;4.278;2022-11-20T11:31:30;19.20;51.90
76474;DHT22;65307;50.902;4.278;2022-11-20T11:34:06;19.20;51.90
76474;DHT22;65307;50.902;4.278;2022-11-20T11:36:33;19.20;51.90
76474;DHT22;65307;50.902;4.278;2022-11-20T11:38:59;19.20;51.90
76474;DHT22;65307;50.902;4.278;2022-11-20T11:41:30;19.10;51.80
76474;DHT22;65307;50.902;4.278;2022-11-20T11:44:01;19.20;51.90
76474;DHT22;65307;50.902;4.278;2022-11-20T11:47:02;19.20;52.00
76474;DHT22;65307;50.902;4.278;2022-11-20T11:49:28;19.10;52.10
76474;DHT22;65307;50.902;4.278;2022-11-20T11:55:01;19.10;52.20
76474;DHT22;65307;50.902;4.278;2022-11-20T11:57:29;19.10;52.20
76474;DHT22;65307;50.902;4.278;2022-11-20T12:00:04;19.00;52.20
76474;DHT22;65307;50.902;4.278;2022-11-20T12:05:31;19.00;52.30
76474;DHT22;65307;50.902;4.278;2022-11-20T12:11:30;19.00;52.40
76474;DHT22;65307;50.902;4.278;2022-11-20T12:16:55;18.90;52.60
76474;DHT22;65307;50.902;4.278;2022-11-20T12:19:23;18.90;52.70
76474;DHT22;65307;50.902;4.278;2022-11-20T12:22:13;18.90;52.70
76474;DHT22;65307;50.902;4.278;2022-11-20T12:24:58;18.90;52.70
76474;DHT22;65307;50.902;4.278;2022-11-20T12:30:19;18.80;52.80
76474;DHT22;65307;50.902;4.278;2022-11-20T12:32:55;18.80;52.80
76474;DHT22;65307;50.902;4.278;2022-11-20T12:52:47;18.90;52.90
76474;DHT22;65307;50.902;4.278;2022-11-20T13:03:42;18.90;52.90
76474;DHT22;65307;50.902;4.278;2022-11-20T13:06:17;18.90;52.90
76474;DHT22;65307;50.902;4.278;2022-11-20T13:08:54;18.90;52.90
76474;DHT22;65307;50.902;4.278;2022-11-20T13:14:03;18.90;52.90
76474;DHT22;65307;50.902;4.278;2022-11-20T13:16:48;18.90;52.90
76474;DHT22;65307;50.902;4.278;2022-11-20T13:19:17;18.90;52.90
76474;DHT22;65307;50.902;4.278;2022-11-20T13:21:48;18.90;53.00
76474;DHT22;65307;50.902;4.278;2022-11-20T13:24:21;18.90;53.00
76474;DHT22;65307;50.902;4.278;2022-11-20T13:27:00;18.90;53.00
76474;DHT22;65307;50.902;4.278;2022-11-20T13:29:26;18.90;53.00
76474;DHT22;65307;50.902;4.278;2022-11-20T13:32:02;18.90;53.00
76474;DHT22;65307;50.902;4.278;2022-11-20T13:34:29;18.90;53.00
76474;DHT22;65307;50.902;4.278;2022-11-20T13:36:57;18.90;53.00
76474;DHT22;65307;50.902;4.278;2022-11-20T13:39:49;18.90;53.00
76474;DHT22;65307;50.902;4.278;2022-11-20T13:44:48;18.90;53.20
76474;DHT22;65307;50.902;4.278;2022-11-20T13:47:28;18.90;53.10
76474;DHT22;65307;50.902;4.278;2022-11-20T13:49:58;19.00;53.10
76474;DHT22;65307;50.902;4.278;2022-11-20T13:52:58;18.90;53.10
76474;DHT22;65307;50.902;4.278;2022-11-20T13:55:32;18.90;53.00
76474;DHT22;65307;50.902;4.278;2022-11-20T14:00:30;19.00;53.20
76474;DHT22;65307;50.902;4.278;2022-11-20T14:03:20;19.00;53.10
76474;DHT22;65307;50.902;4.278;2022-11-20T14:05:57;19.00;53.10
76474;DHT22;65307;50.902;4.278;2022-11-20T14:08:40;19.00;53.20
76474;DHT22;65307;50.902;4.278;2022-11-20T14:11:21;19.00;53.20
76474;DHT22;65307;50.902;4.278;2022-11-20T14:14:02;19.00;53.20
76474;DHT22;65307;50.902;4.278;2022-11-20T14:16:35;19.00;53.20
76474;DHT22;65307;50.902;4.278;2022-11-20T14:21:49;19.00;53.30
76474;DHT22;65307;50.902;4.278;2022-11-20T14:24:19;19.00;53.40
76474;DHT22;65307;50.902;4.278;2022-11-20T14:26:46;19.00;53.40
76474;DHT22;65307;50.902;4.278;2022-11-20T14:29:29;18.90;53.30
76474;DHT22;65307;50.902;4.278;2022-11-20T14:31:56;19.00;53.30
76474;DHT22;65307;50.902;4.278;2022-11-20T14:34:25;18.90;53.30
76474;DHT22;65307;50.902;4.278;2022-11-20T14:37:12;18.90;53.30
76474;DHT22;65307;50.902;4.278;2022-11-20T14:39:42;19.00;53.40
76474;DHT22;65307;50.902;4.278;2022-11-20T14:42:26;19.00;53.40
76474;DHT22;65307;50.902;4.278;2022-11-20T14:45:01;19.00;53.40
76474;DHT22;65307;50.902;4.278;2022-11-20T14:47:29;19.00;53.40
76474;DHT22;65307;50.902;4.278;2022-11-20T14:49:57;19.00;53.40
76474;DHT22;65307;50.902;4.278;2022-11-20T14:52:27;19.00;53.40
76474;DHT22;65307;50.902;4.278;2022-11-20T14:54:57;19.00;53.40
76474;DHT22;65307;50.902;4.278;2022-11-20T14:57:31;19.00;53.40
76474;DHT22;65307;50.902;4.278;2022-11-20T15:02:45;19.00;53.30
76474;DHT22;65307;50.902;4.278;2022-11-20T15:05:12;19.00;53.90
76474;DHT22;65307;50.902;4.278;2022-11-20T15:07:40;19.00;53.40
76474;DHT22;65307;50.902;4.278;2022-11-20T15:10:33;19.00;53.40
76474;DHT22;65307;50.902;4.278;2022-11-20T15:13:05;19.00;53.30
76474;DHT22;65307;50.902;4.278;2022-11-20T15:15:35;19.00;53.40
76474;DHT22;65307;50.902;4.278;2022-11-20T15:18:02;19.10;53.40
76474;DHT22;65307;50.902;4.278;2022-11-20T15:20:31;19.10;53.30
76474;DHT22;65307;50.902;4.278;2022-11-20T15:22:57;19.10;53.30
76474;DHT22;65307;50.902;4.278;2022-11-20T15:25:23;19.10;53.30
76474;DHT22;65307;50.902;4.278;2022-11-20T15:27:53;19.10;53.30
76474;DHT22;65307;50.902;4.278;2022-11-20T15:30:20;19.10;53.30
76474;DHT22;65307;50.902;4.278;2022-11-20T15:32:47;19.10;53.30
76474;DHT22;65307;50.902;4.278;2022-11-20T15:35:13;19.10;53.30
76474;DHT22;65307;50.902;4.278;2022-11-20T15:37:40;19.10;53.30
76474;DHT22;65307;50.902;4.278;2022-11-20T15:40:08;19.10;53.30
76474;DHT22;65307;50.902;4.278;2022-11-20T15:42:34;19.10;53.30
76474;DHT22;65307;50.902;4.278;2022-11-20T15:45:00;19.10;53.30
76474;DHT22;65307;50.902;4.278;2022-11-20T15:47:33;19.20;53.30
76474;DHT22;65307;50.902;4.278;2022-11-20T15:49:59;19.10;53.30
76474;DHT22;65307;50.902;4.278;2022-11-20T15:52:24;19.10;53.30
76474;DHT22;65307;50.902;4.278;2022-11-20T15:54:50;19.10;53.30
76474;DHT22;65307;50.902;4.278;2022-11-20T15:57:16;19.10;53.30
76474;DHT22;65307;50.902;4.278;2022-11-20T15:59:41;19.20;53.30
76474;DHT22;65307;50.902;4.278;2022-11-20T16:02:15;19.10;53.30
76474;DHT22;65307;50.902;4.278;2022-11-20T16:04:41;19.20;53.30
76474;DHT22;65307;50.902;4.278;2022-11-20T16:07:07;19.10;53.30
76474;DHT22;65307;50.902;4.278;2022-11-20T16:09:32;19.20;53.30
76474;DHT22;65307;50.902;4.278;2022-11-20T16:11:59;19.20;53.30
76474;DHT22;65307;50.902;4.278;2022-11-20T16:14:25;19.20;53.40
76474;DHT22;65307;50.902;4.278;2022-11-20T16:17:10;19.20;53.30
76474;DHT22;65307;50.902;4.278;2022-11-20T16:19:35;19.20;53.30
76474;DHT22;65307;50.902;4.278;2022-11-20T16:22:01;19.30;53.40
76474;DHT22;65307;50.902;4.278;2022-11-20T16:24:27;19.20;53.30
76474;DHT22;65307;50.902;4.278;2022-11-20T16:26:56;19.20;53.30
76474;DHT22;65307;50.902;4.278;2022-11-20T16:29:22;19.20;53.30
76474;DHT22;65307;50.902;4.278;2022-11-20T16:31:48;19.20;53.30
76474;DHT22;65307;50.902;4.278;2022-11-20T16:34:15;19.20;53.30
76474;DHT22;65307;50.902;4.278;2022-11-20T16:36:42;19.20;53.20
76474;DHT22;65307;50.902;4.278;2022-11-20T16:39:09;19.20;53.30
76474;DHT22;65307;50.902;4.278;2022-11-20T16:41:34;19.20;53.20
76474;DHT22;65307;50.902;4.278;2022-11-20T16:44:02;19.20;53.20
76474;DHT22;65307;50.902;4.278;2022-11-20T16:46:31;19.30;53.30
76474;DHT22;65307;50.902;4.278;2022-11-20T16:49:04;19.20;53.20
76474;DHT22;65307;50.902;4.278;2022-11-20T16:51:34;19.30;53.20
76474;DHT22;65307;50.902;4.278;2022-11-20T16:54:08;19.30;53.20
76474;DHT22;65307;50.902;4.278;2022-11-20T16:56:34;19.30;53.20
76474;DHT22;65307;50.902;4.278;2022-11-20T16:59:00;19.20;53.10
76474;DHT22;65307;50.902;4.278;2022-11-20T17:01:28;19.30;53.20
76474;DHT22;65307;50.902;4.278;2022-11-20T17:03:56;19.30;53.20
76474;DHT22;65307;50.902;4.278;2022-11-20T17:06:24;19.30;53.10
76474;DHT22;65307;50.902;4.278;2022-11-20T17:08:50;19.30;53.10
76474;DHT22;65307;50.902;4.278;2022-11-20T17:11:17;19.30;53.10
76474;DHT22;65307;50.902;4.278;2022-11-20T17:13:43;19.30;53.10